createdAt,value
2019-05-17T00:01:37.581Z,15.70
2019-05-17T00:04:13.265Z,15.70
2019-05-17T00:06:41.102Z,15.70
2019-05-17T00:09:09.000Z,15.70
2019-05-17T00:11:36.982Z,15.70
2019-05-17T00:14:06.340Z,15.60
2019-05-17T00:16:34.320Z,15.80
2019-05-17T00:19:02.067Z,15.70
2019-05-17T00:21:30.284Z,15.60
2019-05-17T00:23:59.108Z,15.60
2019-05-17T00:26:28.552Z,15.10
2019-05-17T00:28:56.384Z,15.70
2019-05-17T00:31:26.283Z,15.80
2019-05-17T00:33:56.446Z,15.60
2019-05-17T00:36:26.771Z,15.70
2019-05-17T00:38:56.644Z,15.60
2019-05-17T00:41:26.874Z,15.50
2019-05-17T00:43:56.844Z,15.50
2019-05-17T00:46:26.654Z,15.40
2019-05-17T00:48:57.131Z,15.70
2019-05-17T00:51:27.235Z,15.70
2019-05-17T00:53:56.261Z,15.40
2019-05-17T00:56:26.471Z,15.50
2019-05-17T00:58:53.862Z,15.20
2019-05-17T01:01:21.668Z,15.70
2019-05-17T01:03:49.489Z,15.70
2019-05-17T01:06:17.194Z,15.50
2019-05-17T01:08:47.485Z,15.60
2019-05-17T01:11:16.542Z,15.60
2019-05-17T01:13:46.340Z,15.40
2019-05-17T01:16:13.820Z,15.60
2019-05-17T01:18:41.647Z,15.40
2019-05-17T01:21:09.340Z,15.70
2019-05-17T01:23:37.065Z,15.30
2019-05-17T01:26:07.322Z,15.10
2019-05-17T01:28:36.297Z,15.70
2019-05-17T01:31:06.480Z,15.30
2019-05-17T01:33:36.569Z,15.00
2019-05-17T01:36:06.786Z,15.20
2019-05-17T01:38:37.417Z,15.30
2019-05-17T01:41:06.832Z,15.30
2019-05-17T01:43:36.589Z,15.10
2019-05-17T01:46:03.999Z,15.20
2019-05-17T01:48:31.926Z,15.30
2019-05-17T01:50:59.677Z,15.20
2019-05-17T01:53:27.386Z,15.10
2019-05-17T01:55:56.787Z,15.20
2019-05-17T01:58:27.081Z,15.00
2019-05-17T02:00:57.397Z,15.00
2019-05-17T02:03:26.772Z,15.00
2019-05-17T02:05:56.620Z,15.30
2019-05-17T02:08:26.463Z,15.20
2019-05-17T02:10:54.364Z,15.20
2019-05-17T02:13:22.202Z,15.20
2019-05-17T02:15:50.161Z,15.20
2019-05-17T02:18:17.906Z,15.30
2019-05-17T02:20:46.416Z,15.00
2019-05-17T02:23:14.529Z,15.30
2019-05-17T02:25:42.259Z,15.20
2019-05-17T02:28:12.171Z,15.00
2019-05-17T02:30:43.882Z,15.20
2019-05-17T02:33:12.665Z,15.20
2019-05-17T02:35:42.896Z,15.30
2019-05-17T02:38:13.017Z,15.20
2019-05-17T02:40:42.842Z,15.00
2019-05-17T02:43:09.405Z,15.30
2019-05-17T02:45:37.279Z,14.90
2019-05-17T02:48:04.986Z,14.80
2019-05-17T02:50:36.252Z,14.60
2019-05-17T02:53:04.846Z,14.60
2019-05-17T02:55:32.761Z,14.60
2019-05-17T02:58:02.903Z,14.70
2019-05-17T03:00:33.865Z,14.60
2019-05-17T03:03:02.988Z,14.70
2019-05-17T03:05:29.616Z,14.80
2019-05-17T03:07:57.415Z,14.80
2019-05-17T03:10:29.028Z,14.70
2019-05-17T03:12:54.843Z,14.70
2019-05-17T03:15:23.559Z,14.70
2019-05-17T03:17:53.676Z,14.60
2019-05-17T03:20:23.322Z,14.90
2019-05-17T03:22:52.533Z,14.60
2019-05-17T03:25:23.617Z,14.70
2019-05-17T03:27:53.364Z,14.80
2019-05-17T03:30:25.298Z,14.50
2019-05-17T03:32:55.564Z,14.80
2019-05-17T03:35:25.724Z,14.80
2019-05-17T03:37:52.907Z,14.70
2019-05-17T03:40:43.649Z,14.50
2019-05-17T03:42:49.174Z,14.70
2019-05-17T03:45:16.911Z,14.80
2019-05-17T03:47:45.027Z,14.60
2019-05-17T03:50:13.744Z,14.70
2019-05-17T03:52:44.442Z,14.60
2019-05-17T03:55:13.124Z,14.70
2019-05-17T03:57:44.179Z,14.90
2019-05-17T04:00:15.198Z,14.50
2019-05-17T04:02:44.549Z,14.80
2019-05-17T04:05:13.028Z,14.50
2019-05-17T04:07:43.496Z,14.80
2019-05-17T04:10:14.622Z,14.60
2019-05-17T04:12:43.641Z,14.60
2019-05-17T04:15:13.459Z,14.60
2019-05-17T04:17:43.831Z,14.80
2019-05-17T04:20:13.493Z,14.60
2019-05-17T04:22:44.115Z,14.50
2019-05-17T04:25:13.417Z,14.80
2019-05-17T04:27:43.529Z,14.50
2019-05-17T04:30:12.557Z,14.50
2019-05-17T04:32:43.594Z,14.50
2019-05-17T04:35:13.020Z,14.80
2019-05-17T04:37:40.069Z,14.80
2019-05-17T04:40:08.266Z,14.70
2019-05-17T04:42:36.520Z,14.80
2019-05-17T04:45:05.072Z,14.70
2019-05-17T04:47:33.563Z,14.70
2019-05-17T04:50:03.930Z,14.80
2019-05-17T04:52:33.651Z,14.50
2019-05-17T04:55:04.165Z,14.60
2019-05-17T04:57:32.543Z,14.70
2019-05-17T05:00:03.827Z,14.70
2019-05-17T05:02:33.171Z,14.50
2019-05-17T05:05:03.349Z,14.90
2019-05-17T05:07:33.590Z,14.60
2019-05-17T05:10:02.965Z,14.60
2019-05-17T05:12:33.538Z,15.00
2019-05-17T05:15:03.583Z,15.00
2019-05-17T05:17:32.986Z,15.00
2019-05-17T05:20:02.824Z,15.20
2019-05-17T05:22:32.969Z,15.30
2019-05-17T05:25:02.143Z,15.20
2019-05-17T05:27:31.628Z,15.60
2019-05-17T05:29:59.989Z,15.70
2019-05-17T05:32:27.736Z,15.60
2019-05-17T05:34:55.641Z,15.80
2019-05-17T05:37:23.490Z,15.80
2019-05-17T05:39:54.428Z,15.50
2019-05-17T05:42:22.193Z,15.60
2019-05-17T05:44:52.258Z,15.60
2019-05-17T05:47:22.067Z,15.80
2019-05-17T05:49:51.913Z,15.60
2019-05-17T05:52:21.898Z,15.70
2019-05-17T05:54:51.924Z,15.70
2019-05-17T05:57:21.853Z,15.50
2019-05-17T05:59:51.824Z,15.60
2019-05-17T06:02:21.790Z,15.60
2019-05-17T06:04:51.686Z,15.60
2019-05-17T06:07:21.471Z,15.70
2019-05-17T06:09:51.756Z,15.90
2019-05-17T06:12:24.752Z,15.70
2019-05-17T06:14:49.408Z,16.30
2019-05-17T06:17:17.270Z,16.10
2019-05-17T06:19:44.947Z,16.10
2019-05-17T06:22:12.845Z,16.40
2019-05-17T06:24:42.698Z,16.30
2019-05-17T06:27:12.364Z,16.70
2019-05-17T06:29:41.510Z,16.90
2019-05-17T06:32:11.901Z,16.80
2019-05-17T06:34:42.058Z,16.80
2019-05-17T06:37:09.564Z,16.90
2019-05-17T06:39:37.264Z,17.20
2019-05-17T06:42:05.182Z,16.90
2019-05-17T06:44:33.581Z,17.50
2019-05-17T06:47:02.646Z,17.60
2019-05-17T06:49:31.806Z,18.10
2019-05-17T06:52:02.342Z,17.90
2019-05-17T06:54:29.963Z,18.20
2019-05-17T06:57:03.081Z,18.20
2019-05-17T06:59:30.942Z,18.60
2019-05-17T07:01:59.735Z,18.60
2019-05-17T07:04:29.894Z,18.80
2019-05-17T07:07:15.470Z,18.80
2019-05-17T07:09:44.388Z,19.00
2019-05-17T07:12:12.274Z,19.10
2019-05-17T07:14:40.180Z,19.30
2019-05-17T07:17:10.064Z,19.60
2019-05-17T07:19:40.044Z,19.10
2019-05-17T07:22:09.559Z,19.60
2019-05-17T07:24:39.712Z,19.40
2019-05-17T07:27:07.322Z,19.60
2019-05-17T07:29:35.108Z,19.60
2019-05-17T07:32:02.814Z,19.30
2019-05-17T07:34:30.935Z,19.30
2019-05-17T07:36:59.760Z,19.40
2019-05-17T07:39:29.524Z,19.60
2019-05-17T07:41:59.873Z,19.60
2019-05-17T07:44:29.515Z,19.70
2019-05-17T07:46:57.526Z,20.10
2019-05-17T07:49:25.247Z,20.40
2019-05-17T07:51:53.058Z,20.50
2019-05-17T07:54:20.894Z,20.60
2019-05-17T07:56:50.568Z,20.90
2019-05-17T07:59:19.976Z,20.60
2019-05-17T08:01:50.212Z,20.60
2019-05-17T08:04:20.490Z,20.60
2019-05-17T08:06:50.555Z,20.50
2019-05-17T08:09:20.451Z,21.00
2019-05-17T08:11:50.206Z,20.60
2019-05-17T08:14:29.362Z,21.30
2019-05-17T08:16:50.071Z,21.30
2019-05-17T08:19:17.618Z,21.20
2019-05-17T08:21:45.471Z,21.10
2019-05-17T08:24:13.262Z,21.30
2019-05-17T08:26:41.948Z,21.30
2019-05-17T08:29:10.037Z,21.30
2019-05-17T08:31:40.197Z,21.50
2019-05-17T08:34:10.211Z,21.50
2019-05-17T08:36:37.436Z,21.80
2019-05-17T08:39:06.279Z,21.30
2019-05-17T08:41:34.074Z,21.40
2019-05-17T08:44:02.156Z,21.40
2019-05-17T08:46:30.595Z,21.60
2019-05-17T08:49:00.284Z,21.70
2019-05-17T08:51:30.316Z,21.90
2019-05-17T08:54:00.026Z,22.00
2019-05-17T08:56:27.910Z,21.70
2019-05-17T08:58:55.615Z,22.10
2019-05-17T09:01:23.584Z,22.00
2019-05-17T09:03:51.530Z,22.10
2019-05-17T09:06:19.940Z,21.70
2019-05-17T09:08:49.910Z,21.80
2019-05-17T09:11:19.545Z,21.90
2019-05-17T09:13:57.220Z,21.80
2019-05-17T09:16:19.541Z,21.70
2019-05-17T09:18:47.152Z,21.50
2019-05-17T09:21:15.251Z,21.30
2019-05-17T09:23:43.477Z,21.40
2019-05-17T09:26:11.573Z,21.40
2019-05-17T09:28:39.572Z,21.70
2019-05-17T09:31:10.226Z,21.60
2019-05-17T09:33:37.650Z,21.70
2019-05-17T09:36:06.524Z,21.80
2019-05-17T09:38:34.391Z,22.10
2019-05-17T09:41:02.141Z,22.20
2019-05-17T09:43:30.052Z,22.50
2019-05-17T09:45:58.047Z,22.40
2019-05-17T09:48:25.807Z,21.90
2019-05-17T09:50:54.102Z,21.90
2019-05-17T09:53:22.677Z,22.10
2019-05-17T09:55:50.414Z,21.70
2019-05-17T09:58:21.421Z,22.00
2019-05-17T10:00:49.608Z,22.00
2019-05-17T10:03:23.265Z,21.80
2019-05-17T10:05:49.534Z,22.60
2019-05-17T10:08:19.307Z,23.00
2019-05-17T10:11:04.229Z,22.90
2019-05-17T10:13:21.445Z,23.00
2019-05-17T10:15:50.012Z,22.70
2019-05-17T10:18:20.005Z,22.60
2019-05-17T10:20:50.478Z,22.80
2019-05-17T10:23:19.679Z,23.20
2019-05-17T10:25:47.534Z,23.60
2019-05-17T10:28:15.295Z,23.60
2019-05-17T10:30:43.136Z,23.80
2019-05-17T10:33:11.390Z,23.70
2019-05-17T10:35:40.744Z,23.90
2019-05-17T10:38:10.335Z,23.60
2019-05-17T10:40:40.819Z,23.60
2019-05-17T10:43:10.041Z,23.40
2019-05-17T10:45:40.917Z,23.40
2019-05-17T10:48:10.202Z,23.30
2019-05-17T10:50:40.753Z,23.20
2019-05-17T10:53:10.055Z,23.00
2019-05-17T10:55:39.678Z,23.10
2019-05-17T10:58:10.072Z,23.30
2019-05-17T11:00:37.712Z,23.00
2019-05-17T11:03:05.945Z,23.20
2019-05-17T11:05:33.723Z,23.30
2019-05-17T11:08:03.534Z,23.10
2019-05-17T11:10:31.880Z,23.40
2019-05-17T11:12:59.748Z,23.60
2019-05-17T11:15:29.395Z,23.60
2019-05-17T11:17:57.266Z,23.90
2019-05-17T11:20:25.028Z,24.20
2019-05-17T11:22:54.554Z,24.80
2019-05-17T11:25:22.312Z,24.20
2019-05-17T11:27:52.802Z,24.70
2019-05-17T11:30:21.062Z,24.70
2019-05-17T11:32:48.837Z,24.70
2019-05-17T11:35:17.375Z,24.40
2019-05-17T11:37:46.989Z,24.00
2019-05-17T11:40:16.589Z,23.60
2019-05-17T11:42:46.431Z,23.60
2019-05-17T11:45:26.772Z,23.50
2019-05-17T11:47:45.890Z,23.60
2019-05-17T11:50:14.342Z,23.60
2019-05-17T11:52:43.653Z,23.30
2019-05-17T11:55:12.853Z,23.20
2019-05-17T11:57:40.641Z,23.30
2019-05-17T12:00:12.427Z,23.70
2019-05-17T12:02:42.197Z,23.10
2019-05-17T12:05:10.192Z,23.30
2019-05-17T12:07:38.083Z,22.90
2019-05-17T12:10:08.008Z,23.10
2019-05-17T12:12:36.222Z,22.80
2019-05-17T12:15:06.946Z,23.10
2019-05-17T12:17:34.693Z,22.90
2019-05-17T12:20:02.754Z,23.00
2019-05-17T12:22:32.560Z,22.50
2019-05-17T12:25:00.287Z,22.20
2019-05-17T12:27:29.135Z,22.40
2019-05-17T12:29:56.919Z,22.30
2019-05-17T12:32:25.243Z,22.30
2019-05-17T12:34:53.981Z,22.20
2019-05-17T12:37:23.574Z,22.30
2019-05-17T12:39:52.554Z,22.00
2019-05-17T12:42:21.596Z,21.60
2019-05-17T12:44:49.362Z,21.70
2019-05-17T12:47:17.550Z,22.20
2019-05-17T12:49:45.463Z,22.20
2019-05-17T12:52:13.391Z,22.30
2019-05-17T12:54:41.506Z,23.00
2019-05-17T12:57:09.286Z,23.00
2019-05-17T12:59:37.252Z,23.60
2019-05-17T13:02:05.254Z,23.80
2019-05-17T13:04:33.081Z,23.60
2019-05-17T13:07:01.075Z,23.80
2019-05-17T13:09:29.364Z,23.10
2019-05-17T13:11:58.938Z,23.00
2019-05-17T13:14:26.707Z,22.90
2019-05-17T13:16:54.706Z,22.60
2019-05-17T13:19:25.253Z,22.40
2019-05-17T13:21:52.238Z,22.30
2019-05-17T13:24:20.131Z,22.30
2019-05-17T13:26:47.907Z,22.20
2019-05-17T13:29:15.860Z,22.10
2019-05-17T13:31:44.032Z,22.30
2019-05-17T13:34:13.557Z,22.30
2019-05-17T13:36:41.280Z,22.30
2019-05-17T13:39:09.449Z,22.20
2019-05-17T13:41:37.592Z,22.30
2019-05-17T13:44:06.169Z,22.90
2019-05-17T13:46:34.107Z,22.80
2019-05-17T13:49:02.075Z,23.00
2019-05-17T13:51:30.746Z,23.20
2019-05-17T13:54:00.283Z,23.00
2019-05-17T13:56:28.019Z,23.10
2019-05-17T13:58:56.385Z,22.50
2019-05-17T14:01:24.455Z,22.30
2019-05-17T14:03:52.390Z,22.30
2019-05-17T14:06:20.559Z,22.20
2019-05-17T14:08:48.380Z,22.20
2019-05-17T14:11:16.276Z,22.20
2019-05-17T14:13:44.047Z,22.00
2019-05-17T14:16:12.040Z,22.20
2019-05-17T14:18:39.897Z,22.30
2019-05-17T14:21:07.967Z,22.10
2019-05-17T14:23:37.487Z,22.10
2019-05-17T14:26:05.306Z,22.20
2019-05-17T14:28:35.730Z,22.20
2019-05-17T14:31:03.680Z,21.60
2019-05-17T14:33:31.425Z,22.20
2019-05-17T14:35:59.195Z,21.80
2019-05-17T14:38:27.189Z,22.00
2019-05-17T14:41:10.417Z,21.60
2019-05-17T14:43:24.931Z,21.70
2019-05-17T14:45:53.354Z,21.20
2019-05-17T14:48:21.465Z,21.00
2019-05-17T14:50:49.827Z,20.90
2019-05-17T14:53:17.785Z,20.80
2019-05-17T14:55:47.346Z,20.90
2019-05-17T14:58:15.790Z,20.20
2019-05-17T15:00:43.577Z,20.40
2019-05-17T15:03:11.338Z,20.20
2019-05-17T15:05:39.325Z,20.30
2019-05-17T15:08:07.181Z,20.00
2019-05-17T15:10:34.900Z,20.10
2019-05-17T15:13:02.741Z,19.60
2019-05-17T15:15:30.682Z,19.70
2019-05-17T15:17:58.873Z,19.60
2019-05-17T15:20:26.742Z,19.50
2019-05-17T15:22:54.989Z,19.50
2019-05-17T15:25:23.992Z,18.90
2019-05-17T15:27:51.726Z,19.10
2019-05-17T15:30:19.579Z,18.90
2019-05-17T15:32:47.929Z,18.90
2019-05-17T15:35:15.727Z,19.50
2019-05-17T15:37:43.796Z,19.10
2019-05-17T15:40:12.027Z,19.10
2019-05-17T15:42:44.536Z,19.10
2019-05-17T15:45:10.919Z,18.80
2019-05-17T15:47:38.941Z,19.00
2019-05-17T15:50:07.492Z,19.00
2019-05-17T15:52:35.793Z,18.90
2019-05-17T15:55:05.223Z,18.90
2019-05-17T15:57:33.029Z,18.80
2019-05-17T16:00:01.284Z,19.00
2019-05-17T16:02:29.028Z,18.80
2019-05-17T16:04:58.606Z,18.90
2019-05-17T16:07:26.612Z,19.00
2019-05-17T16:09:54.343Z,19.40
2019-05-17T16:12:22.133Z,19.40
2019-05-17T16:14:51.750Z,19.50
2019-05-17T16:17:19.865Z,19.30
2019-05-17T16:19:48.223Z,19.30
2019-05-17T16:22:17.440Z,19.10
2019-05-17T16:24:45.191Z,19.40
2019-05-17T16:27:13.055Z,19.00
2019-05-17T16:29:42.755Z,18.90
2019-05-17T16:32:10.515Z,18.90
2019-05-17T16:34:38.409Z,18.90
2019-05-17T16:37:06.126Z,18.80
2019-05-17T16:39:34.355Z,18.90
2019-05-17T16:42:03.834Z,18.90
2019-05-17T16:44:31.773Z,18.80
2019-05-17T16:46:59.520Z,18.80
2019-05-17T16:49:28.560Z,18.70
2019-05-17T16:51:56.683Z,18.80
2019-05-17T16:54:24.427Z,18.30
2019-05-17T16:56:52.325Z,18.60
2019-05-17T16:59:20.692Z,18.30
2019-05-17T17:01:48.441Z,18.10
2019-05-17T17:04:16.350Z,18.70
2019-05-17T17:06:50.666Z,18.20
2019-05-17T17:09:18.536Z,18.20
2019-05-17T17:11:46.738Z,18.20
2019-05-17T17:14:14.693Z,18.60
2019-05-17T17:16:42.514Z,18.40
2019-05-17T17:19:10.661Z,18.50
2019-05-17T17:21:38.862Z,18.80
2019-05-17T17:24:06.898Z,18.60
2019-05-17T17:26:35.591Z,18.20
2019-05-17T17:29:03.921Z,18.10
2019-05-17T17:31:31.941Z,18.30
2019-05-17T17:34:00.001Z,18.10
2019-05-17T17:36:27.760Z,18.20
2019-05-17T17:38:55.491Z,18.10
2019-05-17T17:41:26.662Z,18.40
2019-05-17T17:43:58.399Z,18.30
2019-05-17T17:46:24.544Z,18.10
2019-05-17T17:48:54.233Z,18.20
2019-05-17T17:51:23.195Z,18.30
2019-05-17T17:53:50.951Z,18.10
2019-05-17T17:56:20.684Z,18.20
2019-05-17T17:58:51.059Z,18.00
2019-05-17T18:01:18.808Z,18.10
2019-05-17T18:03:47.067Z,18.10
2019-05-17T18:06:15.265Z,18.20
2019-05-17T18:08:42.973Z,18.00
2019-05-17T18:11:10.745Z,18.20
2019-05-17T18:13:38.962Z,17.90
2019-05-17T18:16:06.954Z,18.20
2019-05-17T18:18:34.690Z,17.50
2019-05-17T18:21:02.425Z,17.60
2019-05-17T18:23:30.295Z,17.40
2019-05-17T18:25:59.164Z,17.50
2019-05-17T18:28:26.930Z,17.70
2019-05-17T18:30:54.892Z,17.60
2019-05-17T18:33:22.914Z,17.80
2019-05-17T18:35:51.552Z,17.70
2019-05-17T18:38:23.286Z,17.50
2019-05-17T18:40:51.033Z,17.40
2019-05-17T18:43:18.764Z,17.70
2019-05-17T18:45:47.833Z,17.40
2019-05-17T18:48:15.709Z,17.40
2019-05-17T18:50:43.605Z,17.30
2019-05-17T18:53:16.691Z,17.30
2019-05-17T18:55:41.283Z,17.30
2019-05-17T18:58:09.694Z,17.60
2019-05-17T19:00:37.643Z,17.30
2019-05-17T19:03:05.536Z,17.20
2019-05-17T19:05:33.348Z,17.30
2019-05-17T19:08:01.097Z,17.50
2019-05-17T19:10:29.696Z,16.90
2019-05-17T19:12:57.615Z,16.90
2019-05-17T19:15:25.773Z,17.20
2019-05-17T19:17:55.352Z,17.50
2019-05-17T19:20:23.131Z,16.80
2019-05-17T19:22:51.146Z,17.10
2019-05-17T19:25:19.028Z,16.80
2019-05-17T19:27:48.104Z,17.10
2019-05-17T19:30:16.373Z,16.80
2019-05-17T19:32:44.136Z,16.80
2019-05-17T19:35:14.308Z,17.10
2019-05-17T19:37:42.052Z,16.70
2019-05-17T19:40:11.972Z,16.70
2019-05-17T19:42:39.740Z,17.00
2019-05-17T19:45:08.895Z,16.80
2019-05-17T19:47:37.176Z,16.70
2019-05-17T19:50:05.213Z,16.70
2019-05-17T19:52:33.001Z,16.70
2019-05-17T19:55:00.957Z,16.80
2019-05-17T19:57:28.842Z,16.60
2019-05-17T19:59:58.602Z,16.70
2019-05-17T20:02:26.735Z,16.70
2019-05-17T20:04:54.530Z,16.30
2019-05-17T20:07:24.233Z,16.30
2019-05-17T20:09:52.441Z,16.20
2019-05-17T20:12:20.226Z,16.20
2019-05-17T20:14:48.520Z,16.30
2019-05-17T20:17:16.485Z,16.20
2019-05-17T20:19:44.628Z,16.20
2019-05-17T20:22:12.745Z,16.20
2019-05-17T20:24:40.833Z,16.20
2019-05-17T20:27:08.594Z,16.20
2019-05-17T20:29:36.574Z,16.10
2019-05-17T20:32:04.427Z,16.10
2019-05-17T20:34:32.290Z,15.70
2019-05-17T20:37:00.017Z,15.70
2019-05-17T20:39:27.943Z,15.50
2019-05-17T20:41:57.531Z,15.50
2019-05-17T20:44:25.654Z,15.60
2019-05-17T20:46:53.599Z,15.10
2019-05-17T20:49:21.360Z,15.10
2019-05-17T20:51:51.009Z,15.50
2019-05-17T20:54:19.306Z,15.50
2019-05-17T20:56:49.039Z,15.60
2019-05-17T20:59:17.017Z,15.90
2019-05-17T21:01:45.261Z,15.70
2019-05-17T21:04:14.374Z,15.50
2019-05-17T21:06:42.107Z,15.60
2019-05-17T21:09:10.271Z,15.80
2019-05-17T21:11:38.218Z,15.70
2019-05-17T21:14:05.970Z,15.90
2019-05-17T21:16:33.837Z,15.60
2019-05-17T21:19:01.853Z,15.70
2019-05-17T21:21:29.700Z,15.50
2019-05-17T21:24:01.976Z,15.50
2019-05-17T21:26:33.118Z,15.50
2019-05-17T21:29:00.984Z,15.30
2019-05-17T21:31:28.902Z,15.20
2019-05-17T21:33:56.642Z,15.40
2019-05-17T21:36:24.368Z,15.20
2019-05-17T21:38:52.342Z,15.30
2019-05-17T21:41:20.078Z,15.10
2019-05-17T21:43:49.710Z,15.10
2019-05-17T21:46:19.404Z,15.20
2019-05-17T21:48:47.217Z,15.20
2019-05-17T21:51:15.090Z,15.00
2019-05-17T21:53:43.570Z,14.60
2019-05-17T21:56:13.082Z,14.50
2019-05-17T21:58:41.020Z,14.80
2019-05-17T22:01:13.797Z,14.50
2019-05-17T22:03:41.860Z,14.80
2019-05-17T22:06:11.022Z,14.80
2019-05-17T22:08:38.736Z,14.90
2019-05-17T22:11:06.603Z,14.90
2019-05-17T22:13:35.987Z,14.70
2019-05-17T22:16:18.498Z,14.90
2019-05-17T22:18:33.930Z,14.80
2019-05-17T22:21:02.092Z,14.50
2019-05-17T22:23:29.835Z,14.50
2019-05-17T22:25:58.124Z,14.80
2019-05-17T22:28:26.905Z,14.70
2019-05-17T22:30:55.545Z,14.60
2019-05-17T22:33:23.288Z,14.40
2019-05-17T22:35:51.049Z,13.70
2019-05-17T22:38:18.924Z,14.40
2019-05-17T22:40:47.730Z,14.20
2019-05-17T22:43:18.294Z,14.00
2019-05-17T22:45:46.222Z,14.10
2019-05-17T22:48:16.153Z,14.30
2019-05-17T22:50:45.133Z,14.10
2019-05-17T22:53:12.966Z,14.10
2019-05-17T22:55:40.785Z,13.60
2019-05-17T22:58:08.747Z,13.80
2019-05-17T23:00:36.463Z,13.40
2019-05-17T23:03:04.427Z,13.50
2019-05-17T23:05:33.143Z,13.40
2019-05-17T23:08:02.609Z,13.70
2019-05-17T23:10:35.002Z,13.50
2019-05-17T23:13:01.507Z,13.50
2019-05-17T23:15:32.339Z,13.00
2019-05-17T23:18:00.249Z,13.20
2019-05-17T23:20:28.299Z,13.00
2019-05-17T23:22:56.080Z,13.00
2019-05-17T23:25:23.801Z,13.10
2019-05-17T23:27:51.922Z,13.30
2019-05-17T23:30:19.624Z,13.20
2019-05-17T23:32:49.140Z,13.10
2019-05-17T23:35:17.092Z,12.90
2019-05-17T23:37:44.925Z,12.90
2019-05-17T23:40:13.545Z,12.90
2019-05-17T23:42:41.254Z,12.60
2019-05-17T23:45:09.785Z,12.60
2019-05-17T23:47:37.514Z,12.60
2019-05-17T23:50:05.794Z,12.50
2019-05-17T23:52:33.872Z,12.80
2019-05-17T23:55:04.430Z,12.80
2019-05-17T23:57:32.178Z,12.70
